Weather at Skien Airport

Public forecast

Using degrees Celsius for public forecast. Weather courtesy of forecast.io.

Closest aviation weather report (METAR) to Skien Airport

Closest report is Sandefjord Airport, Torp, 21.3 nm (39.4 km) E.

2024/04/21 19:50 (retrieved 20 minutes ago)

ENTO 211950Z 17009KT 130V200 CAVOK 05/M03 Q1029 NOSIG

Closest aviation forecast (TAF) to Skien Airport

Closest forecast is Sandefjord Airport, Torp, 21.3 nm (39.4 km) E.

2024/04/21 18:39 (retrieved 2 hours ago)

TAF ENTO 211700Z 2118/2218 06010KT 9999 FEW050 TEMPO 2118/2206 VRB05KT BECMG 2216/2218 22012KT